sensor_id;sensor_type;location;lat;lon;timestamp;P1;durP1;ratioP1;P2;durP2;ratioP2
40058;SDS011;25763;49.972;8.568;2022-09-09T00:00:52;7.00;;;6.50;;
40058;SDS011;25763;49.972;8.568;2022-09-09T00:03:31;6.50;;;6.10;;
40058;SDS011;25763;49.972;8.568;2022-09-09T00:06:09;6.70;;;6.20;;
40058;SDS011;25763;49.972;8.568;2022-09-09T00:08:45;6.32;;;5.93;;
40058;SDS011;25763;49.972;8.568;2022-09-09T00:11:17;6.20;;;5.80;;
40058;SDS011;25763;49.972;8.568;2022-09-09T00:13:52;6.95;;;6.45;;
40058;SDS011;25763;49.972;8.568;2022-09-09T00:16:24;6.88;;;6.38;;
40058;SDS011;25763;49.972;8.568;2022-09-09T00:22:34;6.97;;;6.47;;
40058;SDS011;25763;49.972;8.568;2022-09-09T00:24:46;6.82;;;6.32;;
40058;SDS011;25763;49.972;8.568;2022-09-09T00:29:53;7.13;;;6.57;;
40058;SDS011;25763;49.972;8.568;2022-09-09T00:32:22;6.68;;;6.25;;
40058;SDS011;25763;49.972;8.568;2022-09-09T00:34:54;7.73;;;7.13;;
40058;SDS011;25763;49.972;8.568;2022-09-09T00:37:23;6.15;;;5.75;;
40058;SDS011;25763;49.972;8.568;2022-09-09T00:39:50;6.50;;;6.00;;
40058;SDS011;25763;49.972;8.568;2022-09-09T00:47:51;6.55;;;6.05;;
40058;SDS011;25763;49.972;8.568;2022-09-09T00:58:27;6.60;;;6.15;;
40058;SDS011;25763;49.972;8.568;2022-09-09T01:01:05;6.95;;;6.45;;
40058;SDS011;25763;49.972;8.568;2022-09-09T01:03:42;6.35;;;5.95;;
40058;SDS011;25763;49.972;8.568;2022-09-09T01:08:56;7.53;;;7.03;;
40058;SDS011;25763;49.972;8.568;2022-09-09T01:17:10;6.78;;;6.28;;
40058;SDS011;25763;49.972;8.568;2022-09-09T01:27:33;7.18;;;6.68;;
40058;SDS011;25763;49.972;8.568;2022-09-09T01:30:00;6.22;;;5.82;;
40058;SDS011;25763;49.972;8.568;2022-09-09T01:32:37;7.03;;;6.53;;
40058;SDS011;25763;49.972;8.568;2022-09-09T01:35:07;7.43;;;6.93;;
40058;SDS011;25763;49.972;8.568;2022-09-09T01:37:37;7.25;;;6.75;;
40058;SDS011;25763;49.972;8.568;2022-09-09T01:40:02;7.20;;;6.70;;
40058;SDS011;25763;49.972;8.568;2022-09-09T01:42:28;7.30;;;6.80;;
40058;SDS011;25763;49.972;8.568;2022-09-09T01:44:53;7.00;;;6.50;;
40058;SDS011;25763;49.972;8.568;2022-09-09T01:47:20;8.88;;;8.18;;
40058;SDS011;25763;49.972;8.568;2022-09-09T01:49:45;7.38;;;6.88;;
40058;SDS011;25763;49.972;8.568;2022-09-09T01:52:11;7.43;;;6.93;;
40058;SDS011;25763;49.972;8.568;2022-09-09T01:54:36;6.85;;;6.38;;
40058;SDS011;25763;49.972;8.568;2022-09-09T01:57:06;7.35;;;6.85;;
40058;SDS011;25763;49.972;8.568;2022-09-09T01:59:44;8.05;;;7.55;;
40058;SDS011;25763;49.972;8.568;2022-09-09T02:02:44;7.45;;;6.90;;
40058;SDS011;25763;49.972;8.568;2022-09-09T02:08:07;6.63;;;6.13;;
40058;SDS011;25763;49.972;8.568;2022-09-09T02:13:07;6.93;;;6.43;;
40058;SDS011;25763;49.972;8.568;2022-09-09T02:18:04;7.65;;;7.15;;
40058;SDS011;25763;49.972;8.568;2022-09-09T02:20:34;7.72;;;7.07;;
40058;SDS011;25763;49.972;8.568;2022-09-09T02:23:04;7.45;;;6.95;;
40058;SDS011;25763;49.972;8.568;2022-09-09T02:25:31;7.72;;;7.22;;
40058;SDS011;25763;49.972;8.568;2022-09-09T02:27:58;7.90;;;7.30;;
40058;SDS011;25763;49.972;8.568;2022-09-09T02:30:24;8.00;;;7.40;;
40058;SDS011;25763;49.972;8.568;2022-09-09T02:32:52;8.07;;;7.57;;
40058;SDS011;25763;49.972;8.568;2022-09-09T02:35:22;7.57;;;7.07;;
40058;SDS011;25763;49.972;8.568;2022-09-09T02:37:50;8.65;;;8.07;;
40058;SDS011;25763;49.972;8.568;2022-09-09T02:40:17;7.72;;;7.22;;
40058;SDS011;25763;49.972;8.568;2022-09-09T02:42:44;7.68;;;7.18;;
40058;SDS011;25763;49.972;8.568;2022-09-09T02:45:12;7.93;;;7.43;;
40058;SDS011;25763;49.972;8.568;2022-09-09T02:47:47;8.55;;;8.05;;
40058;SDS011;25763;49.972;8.568;2022-09-09T02:50:34;9.45;;;8.50;;
40058;SDS011;25763;49.972;8.568;2022-09-09T02:53:18;7.97;;;7.47;;
40058;SDS011;25763;49.972;8.568;2022-09-09T02:55:50;8.73;;;8.15;;
40058;SDS011;25763;49.972;8.568;2022-09-09T02:58:20;8.15;;;7.65;;
40058;SDS011;25763;49.972;8.568;2022-09-09T03:00:47;9.00;;;8.40;;
40058;SDS011;25763;49.972;8.568;2022-09-09T03:03:15;8.07;;;7.57;;
40058;SDS011;25763;49.972;8.568;2022-09-09T03:05:44;8.67;;;8.10;;
40058;SDS011;25763;49.972;8.568;2022-09-09T03:08:11;8.90;;;8.30;;
40058;SDS011;25763;49.972;8.568;2022-09-09T03:10:38;8.50;;;7.90;;
40058;SDS011;25763;49.972;8.568;2022-09-09T03:13:03;8.45;;;7.82;;
40058;SDS011;25763;49.972;8.568;2022-09-09T03:15:32;9.32;;;8.73;;
40058;SDS011;25763;49.972;8.568;2022-09-09T03:17:58;9.45;;;8.75;;
40058;SDS011;25763;49.972;8.568;2022-09-09T03:20:25;10.32;;;9.60;;
40058;SDS011;25763;49.972;8.568;2022-09-09T03:22:52;9.10;;;8.50;;
40058;SDS011;25763;49.972;8.568;2022-09-09T03:25:19;8.95;;;8.35;;
40058;SDS011;25763;49.972;8.568;2022-09-09T03:27:44;8.68;;;8.07;;
40058;SDS011;25763;49.972;8.568;2022-09-09T03:30:10;8.05;;;7.55;;
40058;SDS011;25763;49.972;8.568;2022-09-09T03:32:35;9.70;;;9.10;;
40058;SDS011;25763;49.972;8.568;2022-09-09T03:35:01;10.02;;;9.32;;
40058;SDS011;25763;49.972;8.568;2022-09-09T03:37:27;9.15;;;8.55;;
40058;SDS011;25763;49.972;8.568;2022-09-09T03:39:52;10.15;;;9.48;;
40058;SDS011;25763;49.972;8.568;2022-09-09T03:42:19;9.68;;;9.07;;
40058;SDS011;25763;49.972;8.568;2022-09-09T03:44:45;9.20;;;8.60;;
40058;SDS011;25763;49.972;8.568;2022-09-09T03:47:15;9.45;;;8.85;;
40058;SDS011;25763;49.972;8.568;2022-09-09T03:49:42;9.23;;;8.63;;
40058;SDS011;25763;49.972;8.568;2022-09-09T03:52:08;9.65;;;8.95;;
40058;SDS011;25763;49.972;8.568;2022-09-09T03:54:34;9.88;;;9.27;;
40058;SDS011;25763;49.972;8.568;2022-09-09T03:56:59;9.00;;;8.43;;
40058;SDS011;25763;49.972;8.568;2022-09-09T03:59:25;10.68;;;9.90;;
40058;SDS011;25763;49.972;8.568;2022-09-09T04:01:50;10.02;;;9.43;;
40058;SDS011;25763;49.972;8.568;2022-09-09T04:04:16;10.23;;;9.52;;
40058;SDS011;25763;49.972;8.568;2022-09-09T04:06:41;11.43;;;10.73;;
40058;SDS011;25763;49.972;8.568;2022-09-09T04:09:07;9.95;;;9.35;;
40058;SDS011;25763;49.972;8.568;2022-09-09T04:11:32;10.07;;;9.48;;
40058;SDS011;25763;49.972;8.568;2022-09-09T04:13:58;9.90;;;9.30;;
40058;SDS011;25763;49.972;8.568;2022-09-09T04:16:23;10.35;;;9.75;;
40058;SDS011;25763;49.972;8.568;2022-09-09T04:18:49;9.38;;;8.77;;
40058;SDS011;25763;49.972;8.568;2022-09-09T04:21:14;9.05;;;8.48;;
40058;SDS011;25763;49.972;8.568;2022-09-09T04:23:41;8.52;;;7.97;;
40058;SDS011;25763;49.972;8.568;2022-09-09T04:26:06;8.52;;;8.00;;
40058;SDS011;25763;49.972;8.568;2022-09-09T04:28:33;8.82;;;8.23;;
40058;SDS011;25763;49.972;8.568;2022-09-09T04:31:04;8.63;;;8.02;;
40058;SDS011;25763;49.972;8.568;2022-09-09T04:33:30;8.45;;;7.85;;
40058;SDS011;25763;49.972;8.568;2022-09-09T04:35:56;7.20;;;6.70;;
40058;SDS011;25763;49.972;8.568;2022-09-09T04:38:22;7.13;;;6.63;;
40058;SDS011;25763;49.972;8.568;2022-09-09T04:40:48;15.35;;;8.52;;
40058;SDS011;25763;49.972;8.568;2022-09-09T04:43:14;10.07;;;7.05;;
40058;SDS011;25763;49.972;8.568;2022-09-09T04:45:40;6.82;;;6.32;;
40058;SDS011;25763;49.972;8.568;2022-09-09T04:48:07;7.60;;;7.10;;
40058;SDS011;25763;49.972;8.568;2022-09-09T04:50:33;6.88;;;6.38;;
40058;SDS011;25763;49.972;8.568;2022-09-09T04:53:02;7.80;;;7.30;;
40058;SDS011;25763;49.972;8.568;2022-09-09T04:55:29;7.10;;;6.60;;
40058;SDS011;25763;49.972;8.568;2022-09-09T04:57:55;10.73;;;7.50;;
40058;SDS011;25763;49.972;8.568;2022-09-09T05:00:21;8.27;;;7.78;;
40058;SDS011;25763;49.972;8.568;2022-09-09T05:02:47;7.47;;;6.97;;
40058;SDS011;25763;49.972;8.568;2022-09-09T05:05:12;9.77;;;9.07;;
40058;SDS011;25763;49.972;8.568;2022-09-09T05:07:38;7.78;;;7.28;;
40058;SDS011;25763;49.972;8.568;2022-09-09T05:10:03;7.35;;;6.85;;
40058;SDS011;25763;49.972;8.568;2022-09-09T05:12:30;7.18;;;6.70;;
40058;SDS011;25763;49.972;8.568;2022-09-09T05:14:56;7.75;;;7.25;;
40058;SDS011;25763;49.972;8.568;2022-09-09T05:17:21;7.15;;;6.65;;
40058;SDS011;25763;49.972;8.568;2022-09-09T05:19:47;7.32;;;6.82;;
40058;SDS011;25763;49.972;8.568;2022-09-09T05:22:12;6.38;;;5.97;;
40058;SDS011;25763;49.972;8.568;2022-09-09T05:24:38;6.53;;;6.05;;
40058;SDS011;25763;49.972;8.568;2022-09-09T05:27:03;8.73;;;8.13;;
40058;SDS011;25763;49.972;8.568;2022-09-09T05:29:30;8.30;;;7.70;;
40058;SDS011;25763;49.972;8.568;2022-09-09T05:31:58;6.78;;;6.32;;
40058;SDS011;25763;49.972;8.568;2022-09-09T05:34:24;7.10;;;6.60;;
40058;SDS011;25763;49.972;8.568;2022-09-09T05:36:49;7.43;;;6.93;;
40058;SDS011;25763;49.972;8.568;2022-09-09T05:39:14;7.20;;;6.70;;
40058;SDS011;25763;49.972;8.568;2022-09-09T05:41:40;6.82;;;6.32;;
40058;SDS011;25763;49.972;8.568;2022-09-09T05:44:05;6.80;;;6.30;;
40058;SDS011;25763;49.972;8.568;2022-09-09T05:46:31;7.05;;;6.55;;
40058;SDS011;25763;49.972;8.568;2022-09-09T05:48:56;6.90;;;6.40;;
40058;SDS011;25763;49.972;8.568;2022-09-09T05:51:26;7.22;;;6.72;;
40058;SDS011;25763;49.972;8.568;2022-09-09T05:53:54;6.70;;;6.20;;
40058;SDS011;25763;49.972;8.568;2022-09-09T05:56:23;6.28;;;5.88;;
40058;SDS011;25763;49.972;8.568;2022-09-09T05:58:50;7.30;;;6.80;;
40058;SDS011;25763;49.972;8.568;2022-09-09T06:03:46;8.93;;;6.93;;
40058;SDS011;25763;49.972;8.568;2022-09-09T06:06:14;7.18;;;6.68;;
40058;SDS011;25763;49.972;8.568;2022-09-09T06:08:41;7.63;;;7.03;;
40058;SDS011;25763;49.972;8.568;2022-09-09T06:11:21;7.85;;;7.30;;
40058;SDS011;25763;49.972;8.568;2022-09-09T06:13:48;7.55;;;7.05;;
40058;SDS011;25763;49.972;8.568;2022-09-09T06:16:18;6.97;;;6.47;;
40058;SDS011;25763;49.972;8.568;2022-09-09T06:18:45;7.50;;;7.00;;
40058;SDS011;25763;49.972;8.568;2022-09-09T06:21:20;7.47;;;6.97;;
40058;SDS011;25763;49.972;8.568;2022-09-09T06:23:48;7.40;;;6.90;;
40058;SDS011;25763;49.972;8.568;2022-09-09T06:26:15;8.93;;;8.25;;
40058;SDS011;25763;49.972;8.568;2022-09-09T06:28:43;8.23;;;7.63;;
40058;SDS011;25763;49.972;8.568;2022-09-09T06:31:12;7.80;;;7.30;;
40058;SDS011;25763;49.972;8.568;2022-09-09T06:33:38;7.82;;;7.32;;
40058;SDS011;25763;49.972;8.568;2022-09-09T06:36:13;8.57;;;7.97;;
40058;SDS011;25763;49.972;8.568;2022-09-09T06:38:40;8.27;;;7.78;;
40058;SDS011;25763;49.972;8.568;2022-09-09T06:41:10;8.75;;;8.15;;
40058;SDS011;25763;49.972;8.568;2022-09-09T06:43:37;9.25;;;8.65;;
40058;SDS011;25763;49.972;8.568;2022-09-09T06:46:08;9.93;;;9.32;;
40058;SDS011;25763;49.972;8.568;2022-09-09T06:48:36;10.50;;;9.85;;
40058;SDS011;25763;49.972;8.568;2022-09-09T06:51:05;10.23;;;9.63;;
40058;SDS011;25763;49.972;8.568;2022-09-09T06:53:31;9.40;;;8.80;;
40058;SDS011;25763;49.972;8.568;2022-09-09T06:55:59;12.25;;;11.45;;
40058;SDS011;25763;49.972;8.568;2022-09-09T06:58:42;12.23;;;11.52;;
40058;SDS011;25763;49.972;8.568;2022-09-09T07:01:11;11.40;;;10.70;;
40058;SDS011;25763;49.972;8.568;2022-09-09T07:03:41;12.48;;;11.77;;
40058;SDS011;25763;49.972;8.568;2022-09-09T07:06:13;13.45;;;12.65;;
40058;SDS011;25763;49.972;8.568;2022-09-09T07:08:41;13.98;;;13.18;;
40058;SDS011;25763;49.972;8.568;2022-09-09T07:11:08;13.60;;;12.80;;
40058;SDS011;25763;49.972;8.568;2022-09-09T07:13:34;12.82;;;12.10;;
40058;SDS011;25763;49.972;8.568;2022-09-09T07:16:07;12.52;;;11.82;;
40058;SDS011;25763;49.972;8.568;2022-09-09T07:18:34;14.05;;;13.25;;
40058;SDS011;25763;49.972;8.568;2022-09-09T07:21:00;13.10;;;12.30;;
40058;SDS011;25763;49.972;8.568;2022-09-09T07:23:27;13.73;;;12.93;;
40058;SDS011;25763;49.972;8.568;2022-09-09T07:25:53;12.15;;;11.45;;
40058;SDS011;25763;49.972;8.568;2022-09-09T07:28:21;13.18;;;11.85;;
40058;SDS011;25763;49.972;8.568;2022-09-09T07:30:54;12.20;;;11.50;;
40058;SDS011;25763;49.972;8.568;2022-09-09T07:33:24;12.77;;;12.07;;
40058;SDS011;25763;49.972;8.568;2022-09-09T07:35:50;13.23;;;12.43;;
40058;SDS011;25763;49.972;8.568;2022-09-09T07:38:15;11.95;;;11.25;;
40058;SDS011;25763;49.972;8.568;2022-09-09T07:40:41;12.02;;;11.32;;
40058;SDS011;25763;49.972;8.568;2022-09-09T07:43:06;11.68;;;10.98;;
40058;SDS011;25763;49.972;8.568;2022-09-09T07:45:33;12.45;;;11.75;;
40058;SDS011;25763;49.972;8.568;2022-09-09T07:47:59;13.20;;;12.40;;
40058;SDS011;25763;49.972;8.568;2022-09-09T07:50:25;12.73;;;11.82;;
40058;SDS011;25763;49.972;8.568;2022-09-09T07:52:51;12.45;;;11.65;;
40058;SDS011;25763;49.972;8.568;2022-09-09T07:55:18;12.45;;;11.73;;
40058;SDS011;25763;49.972;8.568;2022-09-09T07:57:50;13.00;;;12.25;;
40058;SDS011;25763;49.972;8.568;2022-09-09T08:00:16;12.35;;;11.65;;
40058;SDS011;25763;49.972;8.568;2022-09-09T08:02:43;14.45;;;13.65;;
40058;SDS011;25763;49.972;8.568;2022-09-09T08:05:09;13.82;;;13.02;;
40058;SDS011;25763;49.972;8.568;2022-09-09T08:07:34;13.60;;;12.75;;
40058;SDS011;25763;49.972;8.568;2022-09-09T08:09:59;12.32;;;11.52;;
40058;SDS011;25763;49.972;8.568;2022-09-09T08:12:25;10.57;;;9.98;;
40058;SDS011;25763;49.972;8.568;2022-09-09T08:14:50;10.25;;;9.65;;
40058;SDS011;25763;49.972;8.568;2022-09-09T08:17:16;14.63;;;13.48;;
40058;SDS011;25763;49.972;8.568;2022-09-09T08:19:42;11.35;;;10.65;;
40058;SDS011;25763;49.972;8.568;2022-09-09T08:22:07;9.77;;;9.18;;
40058;SDS011;25763;49.972;8.568;2022-09-09T08:24:33;11.00;;;10.30;;
40058;SDS011;25763;49.972;8.568;2022-09-09T08:26:59;10.35;;;9.75;;
40058;SDS011;25763;49.972;8.568;2022-09-09T08:29:24;12.30;;;11.60;;
40058;SDS011;25763;49.972;8.568;2022-09-09T08:31:51;10.63;;;10.00;;
40058;SDS011;25763;49.972;8.568;2022-09-09T08:34:22;10.82;;;10.18;;
40058;SDS011;25763;49.972;8.568;2022-09-09T08:36:52;12.33;;;11.53;;
40058;SDS011;25763;49.972;8.568;2022-09-09T08:39:19;12.23;;;11.52;;
40058;SDS011;25763;49.972;8.568;2022-09-09T08:52:55;14.68;;;13.70;;
40058;SDS011;25763;49.972;8.568;2022-09-09T08:57:55;12.45;;;11.75;;
40058;SDS011;25763;49.972;8.568;2022-09-09T09:00:31;13.07;;;12.30;;
40058;SDS011;25763;49.972;8.568;2022-09-09T09:03:23;12.25;;;11.55;;
40058;SDS011;25763;49.972;8.568;2022-09-09T09:09:06;12.15;;;11.32;;
40058;SDS011;25763;49.972;8.568;2022-09-09T09:11:51;9.73;;;9.13;;
40058;SDS011;25763;49.972;8.568;2022-09-09T09:14:30;9.57;;;8.98;;
40058;SDS011;25763;49.972;8.568;2022-09-09T09:19:39;9.02;;;8.43;;
40058;SDS011;25763;49.972;8.568;2022-09-09T09:22:10;12.85;;;12.05;;
40058;SDS011;25763;49.972;8.568;2022-09-09T09:24:50;10.27;;;9.68;;
40058;SDS011;25763;49.972;8.568;2022-09-09T09:27:32;10.45;;;9.75;;
40058;SDS011;25763;49.972;8.568;2022-09-09T09:30:01;8.63;;;8.13;;
40058;SDS011;25763;49.972;8.568;2022-09-09T09:32:44;9.70;;;9.10;;
40058;SDS011;25763;49.972;8.568;2022-09-09T09:35:19;9.00;;;8.40;;
40058;SDS011;25763;49.972;8.568;2022-09-09T09:37:44;9.65;;;9.05;;
40058;SDS011;25763;49.972;8.568;2022-09-09T09:40:11;10.68;;;10.05;;
40058;SDS011;25763;49.972;8.568;2022-09-09T09:42:38;11.32;;;10.63;;
40058;SDS011;25763;49.972;8.568;2022-09-09T09:45:26;11.80;;;11.10;;
40058;SDS011;25763;49.972;8.568;2022-09-09T09:48:12;9.20;;;8.60;;
40058;SDS011;25763;49.972;8.568;2022-09-09T09:53:25;15.02;;;14.15;;
40058;SDS011;25763;49.972;8.568;2022-09-09T09:55:58;6.05;;;5.65;;
40058;SDS011;25763;49.972;8.568;2022-09-09T09:58:32;6.68;;;6.18;;
40058;SDS011;25763;49.972;8.568;2022-09-09T10:01:03;8.57;;;8.02;;
40058;SDS011;25763;49.972;8.568;2022-09-09T10:03:30;7.93;;;7.35;;
40058;SDS011;25763;49.972;8.568;2022-09-09T10:05:57;7.78;;;7.28;;
40058;SDS011;25763;49.972;8.568;2022-09-09T10:08:23;9.27;;;8.68;;
40058;SDS011;25763;49.972;8.568;2022-09-09T10:10:58;7.10;;;6.60;;
40058;SDS011;25763;49.972;8.568;2022-09-09T10:19:30;6.20;;;5.70;;
40058;SDS011;25763;49.972;8.568;2022-09-09T10:32:40;6.18;;;5.78;;
40058;SDS011;25763;49.972;8.568;2022-09-09T10:35:24;5.93;;;5.53;;
40058;SDS011;25763;49.972;8.568;2022-09-09T10:40:42;6.47;;;6.00;;
40058;SDS011;25763;49.972;8.568;2022-09-09T10:44:02;7.03;;;6.53;;
40058;SDS011;25763;49.972;8.568;2022-09-09T10:49:03;6.65;;;6.20;;
40058;SDS011;25763;49.972;8.568;2022-09-09T10:57:04;8.07;;;7.47;;
40058;SDS011;25763;49.972;8.568;2022-09-09T10:59:40;6.55;;;6.13;;
40058;SDS011;25763;49.972;8.568;2022-09-09T11:02:16;8.20;;;7.70;;
40058;SDS011;25763;49.972;8.568;2022-09-09T11:04:53;11.68;;;10.98;;
40058;SDS011;25763;49.972;8.568;2022-09-09T11:07:33;11.45;;;10.75;;
40058;SDS011;25763;49.972;8.568;2022-09-09T11:10:05;13.85;;;13.05;;
40058;SDS011;25763;49.972;8.568;2022-09-09T11:12:40;12.13;;;11.43;;
40058;SDS011;25763;49.972;8.568;2022-09-09T11:15:30;13.65;;;12.85;;
40058;SDS011;25763;49.972;8.568;2022-09-09T11:18:01;17.23;;;16.27;;
40058;SDS011;25763;49.972;8.568;2022-09-09T11:20:29;17.17;;;16.17;;
40058;SDS011;25763;49.972;8.568;2022-09-09T11:22:59;19.55;;;18.45;;
40058;SDS011;25763;49.972;8.568;2022-09-09T11:25:35;20.63;;;19.52;;
40058;SDS011;25763;49.972;8.568;2022-09-09T11:28:11;21.70;;;20.50;;
40058;SDS011;25763;49.972;8.568;2022-09-09T11:31:28;22.88;;;21.58;;
40058;SDS011;25763;49.972;8.568;2022-09-09T11:34:26;22.70;;;21.40;;
40058;SDS011;25763;49.972;8.568;2022-09-09T11:42:33;27.25;;;25.75;;
40058;SDS011;25763;49.972;8.568;2022-09-09T11:45:08;25.75;;;24.10;;
40058;SDS011;25763;49.972;8.568;2022-09-09T11:47:36;29.40;;;27.80;;
40058;SDS011;25763;49.972;8.568;2022-09-09T11:53:03;22.58;;;21.38;;
40058;SDS011;25763;49.972;8.568;2022-09-09T11:55:31;26.10;;;24.70;;
40058;SDS011;25763;49.972;8.568;2022-09-09T11:58:04;23.75;;;22.45;;
40058;SDS011;25763;49.972;8.568;2022-09-09T12:00:40;22.10;;;20.90;;
40058;SDS011;25763;49.972;8.568;2022-09-09T12:06:19;19.55;;;18.45;;
40058;SDS011;25763;49.972;8.568;2022-09-09T12:08:52;22.15;;;20.95;;
40058;SDS011;25763;49.972;8.568;2022-09-09T12:13:52;22.70;;;21.50;;
40058;SDS011;25763;49.972;8.568;2022-09-09T12:16:31;11.73;;;11.02;;
40058;SDS011;25763;49.972;8.568;2022-09-09T12:19:06;6.72;;;6.25;;
40058;SDS011;25763;49.972;8.568;2022-09-09T12:24:37;10.57;;;9.77;;
40058;SDS011;25763;49.972;8.568;2022-09-09T12:27:31;10.18;;;9.57;;
40058;SDS011;25763;49.972;8.568;2022-09-09T12:30:08;10.43;;;9.82;;
40058;SDS011;25763;49.972;8.568;2022-09-09T12:32:36;10.85;;;10.05;;
40058;SDS011;25763;49.972;8.568;2022-09-09T12:35:03;10.63;;;10.02;;
40058;SDS011;25763;49.972;8.568;2022-09-09T12:37:46;9.68;;;8.88;;
40058;SDS011;25763;49.972;8.568;2022-09-09T12:40:36;8.55;;;8.05;;
40058;SDS011;25763;49.972;8.568;2022-09-09T12:43:02;7.13;;;6.63;;
40058;SDS011;25763;49.972;8.568;2022-09-09T12:45:43;6.97;;;6.47;;
40058;SDS011;25763;49.972;8.568;2022-09-09T12:48:10;10.38;;;9.57;;
40058;SDS011;25763;49.972;8.568;2022-09-09T12:53:30;6.65;;;6.15;;
40058;SDS011;25763;49.972;8.568;2022-09-09T12:56:06;9.48;;;8.88;;
40058;SDS011;25763;49.972;8.568;2022-09-09T12:58:33;11.77;;;11.07;;
40058;SDS011;25763;49.972;8.568;2022-09-09T13:01:01;8.15;;;7.65;;
40058;SDS011;25763;49.972;8.568;2022-09-09T13:03:30;9.55;;;8.95;;
40058;SDS011;25763;49.972;8.568;2022-09-09T13:06:09;7.40;;;6.90;;
40058;SDS011;25763;49.972;8.568;2022-09-09T13:08:37;7.07;;;6.57;;
40058;SDS011;25763;49.972;8.568;2022-09-09T13:11:03;7.47;;;6.97;;
40058;SDS011;25763;49.972;8.568;2022-09-09T13:13:39;5.95;;;5.55;;
40058;SDS011;25763;49.972;8.568;2022-09-09T13:16:07;5.55;;;5.15;;
40058;SDS011;25763;49.972;8.568;2022-09-09T13:18:45;5.82;;;5.43;;
40058;SDS011;25763;49.972;8.568;2022-09-09T13:21:10;5.68;;;5.28;;
40058;SDS011;25763;49.972;8.568;2022-09-09T13:23:37;5.40;;;5.00;;
40058;SDS011;25763;49.972;8.568;2022-09-09T13:26:05;5.95;;;5.55;;
40058;SDS011;25763;49.972;8.568;2022-09-09T13:28:43;5.20;;;4.80;;
40058;SDS011;25763;49.972;8.568;2022-09-09T13:31:24;5.30;;;4.90;;
40058;SDS011;25763;49.972;8.568;2022-09-09T13:33:53;5.00;;;4.60;;
40058;SDS011;25763;49.972;8.568;2022-09-09T13:36:33;6.00;;;5.60;;
40058;SDS011;25763;49.972;8.568;2022-09-09T13:39:00;6.35;;;5.95;;
40058;SDS011;25763;49.972;8.568;2022-09-09T13:41:32;5.40;;;5.00;;
40058;SDS011;25763;49.972;8.568;2022-09-09T13:44:00;5.93;;;5.53;;
40058;SDS011;25763;49.972;8.568;2022-09-09T13:46:36;6.20;;;5.80;;
40058;SDS011;25763;49.972;8.568;2022-09-09T13:51:44;5.53;;;5.13;;
40058;SDS011;25763;49.972;8.568;2022-09-09T13:54:12;5.75;;;5.35;;
40058;SDS011;25763;49.972;8.568;2022-09-09T13:56:39;6.20;;;5.80;;
40058;SDS011;25763;49.972;8.568;2022-09-09T13:59:09;6.68;;;6.20;;
40058;SDS011;25763;49.972;8.568;2022-09-09T14:01:37;5.97;;;5.57;;
40058;SDS011;25763;49.972;8.568;2022-09-09T14:04:03;5.95;;;5.55;;
40058;SDS011;25763;49.972;8.568;2022-09-09T14:06:30;6.95;;;6.35;;
40058;SDS011;25763;49.972;8.568;2022-09-09T14:08:57;7.05;;;6.55;;
40058;SDS011;25763;49.972;8.568;2022-09-09T14:11:22;6.68;;;6.05;;
40058;SDS011;25763;49.972;8.568;2022-09-09T14:13:48;5.70;;;5.30;;
40058;SDS011;25763;49.972;8.568;2022-09-09T14:16:15;6.28;;;5.88;;
40058;SDS011;25763;49.972;8.568;2022-09-09T14:18:42;8.48;;;7.90;;
40058;SDS011;25763;49.972;8.568;2022-09-09T14:21:08;7.70;;;7.20;;
40058;SDS011;25763;49.972;8.568;2022-09-09T14:23:34;5.43;;;5.03;;
40058;SDS011;25763;49.972;8.568;2022-09-09T14:26:00;7.00;;;6.50;;
40058;SDS011;25763;49.972;8.568;2022-09-09T14:28:25;5.30;;;4.90;;
40058;SDS011;25763;49.972;8.568;2022-09-09T14:30:50;9.60;;;9.00;;
40058;SDS011;25763;49.972;8.568;2022-09-09T14:33:15;6.35;;;5.90;;
40058;SDS011;25763;49.972;8.568;2022-09-09T14:35:42;9.43;;;8.82;;
40058;SDS011;25763;49.972;8.568;2022-09-09T14:38:09;9.63;;;9.02;;
40058;SDS011;25763;49.972;8.568;2022-09-09T14:40:35;9.32;;;8.73;;
40058;SDS011;25763;49.972;8.568;2022-09-09T14:43:01;6.72;;;6.22;;
40058;SDS011;25763;49.972;8.568;2022-09-09T14:45:27;6.70;;;6.20;;
40058;SDS011;25763;49.972;8.568;2022-09-09T14:47:53;6.40;;;6.00;;
40058;SDS011;25763;49.972;8.568;2022-09-09T14:50:19;6.28;;;5.85;;
40058;SDS011;25763;49.972;8.568;2022-09-09T14:52:45;5.50;;;5.10;;
40058;SDS011;25763;49.972;8.568;2022-09-09T14:55:11;6.55;;;6.13;;
40058;SDS011;25763;49.972;8.568;2022-09-09T14:57:37;5.70;;;5.30;;
40058;SDS011;25763;49.972;8.568;2022-09-09T15:00:04;6.53;;;5.93;;
40058;SDS011;25763;49.972;8.568;2022-09-09T15:02:30;6.93;;;6.32;;
40058;SDS011;25763;49.972;8.568;2022-09-09T15:04:56;6.85;;;6.35;;
40058;SDS011;25763;49.972;8.568;2022-09-09T15:07:24;7.88;;;7.38;;
40058;SDS011;25763;49.972;8.568;2022-09-09T15:09:51;8.45;;;7.88;;
40058;SDS011;25763;49.972;8.568;2022-09-09T15:12:17;8.20;;;7.70;;
40058;SDS011;25763;49.972;8.568;2022-09-09T15:14:44;9.15;;;8.55;;
40058;SDS011;25763;49.972;8.568;2022-09-09T15:17:09;8.73;;;8.18;;
40058;SDS011;25763;49.972;8.568;2022-09-09T15:19:35;9.15;;;8.55;;
40058;SDS011;25763;49.972;8.568;2022-09-09T15:22:01;8.30;;;7.80;;
40058;SDS011;25763;49.972;8.568;2022-09-09T15:24:28;7.75;;;7.25;;
40058;SDS011;25763;49.972;8.568;2022-09-09T15:26:53;7.07;;;6.57;;
40058;SDS011;25763;49.972;8.568;2022-09-09T15:29:19;8.25;;;7.45;;
40058;SDS011;25763;49.972;8.568;2022-09-09T15:31:44;9.38;;;8.77;;
40058;SDS011;25763;49.972;8.568;2022-09-09T15:34:10;7.55;;;7.05;;
40058;SDS011;25763;49.972;8.568;2022-09-09T15:36:37;7.72;;;7.22;;
40058;SDS011;25763;49.972;8.568;2022-09-09T15:39:05;7.85;;;7.35;;
40058;SDS011;25763;49.972;8.568;2022-09-09T15:41:32;6.78;;;6.28;;
40058;SDS011;25763;49.972;8.568;2022-09-09T15:43:58;7.47;;;6.97;;
40058;SDS011;25763;49.972;8.568;2022-09-09T15:46:44;8.32;;;7.72;;
40058;SDS011;25763;49.972;8.568;2022-09-09T15:49:15;7.68;;;7.07;;
40058;SDS011;25763;49.972;8.568;2022-09-09T15:51:44;7.50;;;7.00;;
40058;SDS011;25763;49.972;8.568;2022-09-09T15:54:12;7.75;;;7.25;;
40058;SDS011;25763;49.972;8.568;2022-09-09T15:56:42;9.45;;;8.70;;
40058;SDS011;25763;49.972;8.568;2022-09-09T15:59:08;8.10;;;7.60;;
40058;SDS011;25763;49.972;8.568;2022-09-09T16:01:35;7.75;;;7.25;;
40058;SDS011;25763;49.972;8.568;2022-09-09T16:04:01;9.48;;;8.88;;
40058;SDS011;25763;49.972;8.568;2022-09-09T16:06:28;8.02;;;7.53;;
40058;SDS011;25763;49.972;8.568;2022-09-09T16:08:54;7.55;;;7.05;;
40058;SDS011;25763;49.972;8.568;2022-09-09T16:13:48;7.13;;;6.63;;
40058;SDS011;25763;49.972;8.568;2022-09-09T16:16:16;7.43;;;6.93;;
40058;SDS011;25763;49.972;8.568;2022-09-09T16:18:51;7.32;;;6.82;;
40058;SDS011;25763;49.972;8.568;2022-09-09T16:21:23;7.65;;;7.15;;
40058;SDS011;25763;49.972;8.568;2022-09-09T16:24:09;8.32;;;7.82;;
40058;SDS011;25763;49.972;8.568;2022-09-09T16:26:36;9.55;;;8.95;;
40058;SDS011;25763;49.972;8.568;2022-09-09T16:29:04;9.57;;;8.98;;
40058;SDS011;25763;49.972;8.568;2022-09-09T16:31:30;9.27;;;8.68;;
40058;SDS011;25763;49.972;8.568;2022-09-09T16:33:57;8.93;;;8.32;;
40058;SDS011;25763;49.972;8.568;2022-09-09T16:36:24;10.38;;;9.77;;
40058;SDS011;25763;49.972;8.568;2022-09-09T16:38:54;13.02;;;11.90;;
40058;SDS011;25763;49.972;8.568;2022-09-09T16:41:21;11.13;;;10.45;;
40058;SDS011;25763;49.972;8.568;2022-09-09T16:43:47;12.13;;;11.43;;
40058;SDS011;25763;49.972;8.568;2022-09-09T16:46:17;11.25;;;10.55;;
40058;SDS011;25763;49.972;8.568;2022-09-09T16:48:44;11.70;;;11.00;;
40058;SDS011;25763;49.972;8.568;2022-09-09T16:51:29;9.60;;;9.00;;
40058;SDS011;25763;49.972;8.568;2022-09-09T16:53:58;10.52;;;9.88;;
40058;SDS011;25763;49.972;8.568;2022-09-09T16:56:25;8.52;;;8.00;;